sensor_id;sensor_type;location;lat;lon;timestamp;temperature;humidity
23301;DHT22;11819;51.394;12.340;2023-04-03T00:00:21;5.60;78.20
23301;DHT22;11819;51.394;12.340;2023-04-03T00:02:46;5.60;78.10
23301;DHT22;11819;51.394;12.340;2023-04-03T00:05:14;5.50;78.10
23301;DHT22;11819;51.394;12.340;2023-04-03T00:07:39;5.50;78.20
23301;DHT22;11819;51.394;12.340;2023-04-03T00:10:06;5.50;78.40
23301;DHT22;11819;51.394;12.340;2023-04-03T00:12:31;5.50;78.30
23301;DHT22;11819;51.394;12.340;2023-04-03T00:14:57;5.50;78.40
23301;DHT22;11819;51.394;12.340;2023-04-03T00:17:22;5.50;78.30
23301;DHT22;11819;51.394;12.340;2023-04-03T00:19:48;5.50;78.50
23301;DHT22;11819;51.394;12.340;2023-04-03T00:22:15;5.50;78.40
23301;DHT22;11819;51.394;12.340;2023-04-03T00:24:40;5.40;78.20
23301;DHT22;11819;51.394;12.340;2023-04-03T00:27:06;5.40;78.20
23301;DHT22;11819;51.394;12.340;2023-04-03T00:29:31;5.40;77.40
23301;DHT22;11819;51.394;12.340;2023-04-03T00:31:57;5.40;77.90
23301;DHT22;11819;51.394;12.340;2023-04-03T00:34:23;5.40;77.80
23301;DHT22;11819;51.394;12.340;2023-04-03T00:36:51;5.40;77.60
23301;DHT22;11819;51.394;12.340;2023-04-03T00:39:17;5.30;77.60
23301;DHT22;11819;51.394;12.340;2023-04-03T00:41:42;5.30;77.70
23301;DHT22;11819;51.394;12.340;2023-04-03T00:47:04;5.30;77.90
23301;DHT22;11819;51.394;12.340;2023-04-03T00:49:31;5.20;77.90
23301;DHT22;11819;51.394;12.340;2023-04-03T00:51:58;5.20;78.10
23301;DHT22;11819;51.394;12.340;2023-04-03T00:54:25;5.10;78.80
23301;DHT22;11819;51.394;12.340;2023-04-03T00:56:53;5.10;78.10
23301;DHT22;11819;51.394;12.340;2023-04-03T01:01:53;5.00;77.80
23301;DHT22;11819;51.394;12.340;2023-04-03T01:04:32;5.00;78.80
23301;DHT22;11819;51.394;12.340;2023-04-03T01:07:07;4.90;78.70
23301;DHT22;11819;51.394;12.340;2023-04-03T01:09:34;4.90;78.70
23301;DHT22;11819;51.394;12.340;2023-04-03T01:12:20;4.90;78.70
23301;DHT22;11819;51.394;12.340;2023-04-03T01:14:50;4.90;78.60
23301;DHT22;11819;51.394;12.340;2023-04-03T01:17:43;4.80;78.50
23301;DHT22;11819;51.394;12.340;2023-04-03T01:25:28;4.70;78.90
23301;DHT22;11819;51.394;12.340;2023-04-03T01:27:55;4.70;79.10
23301;DHT22;11819;51.394;12.340;2023-04-03T01:30:25;4.70;79.30
23301;DHT22;11819;51.394;12.340;2023-04-03T01:32:53;4.60;79.40
23301;DHT22;11819;51.394;12.340;2023-04-03T01:35:19;4.60;79.50
23301;DHT22;11819;51.394;12.340;2023-04-03T01:37:45;4.60;79.60
23301;DHT22;11819;51.394;12.340;2023-04-03T01:40:11;4.60;79.80
23301;DHT22;11819;51.394;12.340;2023-04-03T01:42:37;4.50;79.80
23301;DHT22;11819;51.394;12.340;2023-04-03T01:47:30;4.50;79.10
23301;DHT22;11819;51.394;12.340;2023-04-03T01:49:56;4.40;80.00
23301;DHT22;11819;51.394;12.340;2023-04-03T01:52:21;4.40;80.00
23301;DHT22;11819;51.394;12.340;2023-04-03T01:54:47;4.40;81.00
23301;DHT22;11819;51.394;12.340;2023-04-03T01:57:13;4.40;80.40
23301;DHT22;11819;51.394;12.340;2023-04-03T01:59:40;4.40;80.50
23301;DHT22;11819;51.394;12.340;2023-04-03T02:02:06;4.30;80.60
23301;DHT22;11819;51.394;12.340;2023-04-03T02:04:33;4.30;80.70
23301;DHT22;11819;51.394;12.340;2023-04-03T02:06:58;4.30;80.90
23301;DHT22;11819;51.394;12.340;2023-04-03T02:09:24;4.30;80.90
23301;DHT22;11819;51.394;12.340;2023-04-03T02:11:52;4.30;80.90
23301;DHT22;11819;51.394;12.340;2023-04-03T02:14:18;4.30;81.00
23301;DHT22;11819;51.394;12.340;2023-04-03T02:16:45;4.30;81.10
23301;DHT22;11819;51.394;12.340;2023-04-03T02:19:11;4.30;81.10
23301;DHT22;11819;51.394;12.340;2023-04-03T02:21:36;4.30;81.10
23301;DHT22;11819;51.394;12.340;2023-04-03T02:24:02;4.30;81.40
23301;DHT22;11819;51.394;12.340;2023-04-03T02:26:27;4.20;81.40
23301;DHT22;11819;51.394;12.340;2023-04-03T02:28:53;4.20;81.30
23301;DHT22;11819;51.394;12.340;2023-04-03T02:31:19;4.20;81.30
23301;DHT22;11819;51.394;12.340;2023-04-03T02:33:46;4.20;81.50
23301;DHT22;11819;51.394;12.340;2023-04-03T02:36:14;4.20;81.60
23301;DHT22;11819;51.394;12.340;2023-04-03T02:38:43;4.20;81.60
23301;DHT22;11819;51.394;12.340;2023-04-03T02:41:11;4.20;81.70
23301;DHT22;11819;51.394;12.340;2023-04-03T02:43:38;4.20;81.70
23301;DHT22;11819;51.394;12.340;2023-04-03T02:46:05;4.20;81.70
23301;DHT22;11819;51.394;12.340;2023-04-03T02:48:31;4.20;81.80
23301;DHT22;11819;51.394;12.340;2023-04-03T02:50:57;4.20;81.60
23301;DHT22;11819;51.394;12.340;2023-04-03T02:53:22;4.20;81.20
23301;DHT22;11819;51.394;12.340;2023-04-03T02:55:49;4.10;81.20
23301;DHT22;11819;51.394;12.340;2023-04-03T02:58:16;4.10;81.40
23301;DHT22;11819;51.394;12.340;2023-04-03T03:00:41;4.00;81.40
23301;DHT22;11819;51.394;12.340;2023-04-03T03:03:07;3.90;81.60
23301;DHT22;11819;51.394;12.340;2023-04-03T03:05:33;3.90;81.70
23301;DHT22;11819;51.394;12.340;2023-04-03T03:07:59;3.80;81.90
23301;DHT22;11819;51.394;12.340;2023-04-03T03:10:25;3.80;82.00
23301;DHT22;11819;51.394;12.340;2023-04-03T03:12:50;3.80;82.20
23301;DHT22;11819;51.394;12.340;2023-04-03T03:15:16;3.70;82.20
23301;DHT22;11819;51.394;12.340;2023-04-03T03:17:43;3.70;82.50
23301;DHT22;11819;51.394;12.340;2023-04-03T03:20:09;3.70;82.60
23301;DHT22;11819;51.394;12.340;2023-04-03T03:22:35;3.60;82.70
23301;DHT22;11819;51.394;12.340;2023-04-03T03:25:01;3.60;82.70
23301;DHT22;11819;51.394;12.340;2023-04-03T03:27:28;3.60;82.90
23301;DHT22;11819;51.394;12.340;2023-04-03T03:29:53;3.60;83.00
23301;DHT22;11819;51.394;12.340;2023-04-03T03:32:20;3.60;83.00
23301;DHT22;11819;51.394;12.340;2023-04-03T03:34:45;3.50;83.10
23301;DHT22;11819;51.394;12.340;2023-04-03T03:37:12;3.50;83.20
23301;DHT22;11819;51.394;12.340;2023-04-03T03:39:38;3.40;83.40
23301;DHT22;11819;51.394;12.340;2023-04-03T03:42:03;3.50;83.50
23301;DHT22;11819;51.394;12.340;2023-04-03T03:44:29;3.40;83.60
23301;DHT22;11819;51.394;12.340;2023-04-03T03:46:55;3.50;83.70
23301;DHT22;11819;51.394;12.340;2023-04-03T03:49:22;3.40;83.60
23301;DHT22;11819;51.394;12.340;2023-04-03T03:51:48;3.40;83.40
23301;DHT22;11819;51.394;12.340;2023-04-03T03:54:14;3.40;83.50
23301;DHT22;11819;51.394;12.340;2023-04-03T03:56:40;3.40;83.70
23301;DHT22;11819;51.394;12.340;2023-04-03T03:59:06;3.40;83.60
23301;DHT22;11819;51.394;12.340;2023-04-03T04:01:32;3.40;83.50
23301;DHT22;11819;51.394;12.340;2023-04-03T04:03:58;3.40;83.60
23301;DHT22;11819;51.394;12.340;2023-04-03T04:06:28;3.30;83.70
23301;DHT22;11819;51.394;12.340;2023-04-03T04:08:58;3.30;83.70
23301;DHT22;11819;51.394;12.340;2023-04-03T04:11:23;3.30;83.90
23301;DHT22;11819;51.394;12.340;2023-04-03T04:13:51;3.20;83.90
23301;DHT22;11819;51.394;12.340;2023-04-03T04:16:19;3.30;84.10
23301;DHT22;11819;51.394;12.340;2023-04-03T04:18:46;3.20;84.00
23301;DHT22;11819;51.394;12.340;2023-04-03T04:21:12;3.20;84.10
23301;DHT22;11819;51.394;12.340;2023-04-03T04:23:38;3.20;84.20
23301;DHT22;11819;51.394;12.340;2023-04-03T04:26:04;3.20;84.10
23301;DHT22;11819;51.394;12.340;2023-04-03T04:28:37;3.20;84.20
23301;DHT22;11819;51.394;12.340;2023-04-03T04:31:03;3.10;84.20
23301;DHT22;11819;51.394;12.340;2023-04-03T04:33:30;3.10;84.40
23301;DHT22;11819;51.394;12.340;2023-04-03T04:35:58;3.20;84.50
23301;DHT22;11819;51.394;12.340;2023-04-03T04:38:24;3.10;84.60
23301;DHT22;11819;51.394;12.340;2023-04-03T04:40:52;3.10;84.60
23301;DHT22;11819;51.394;12.340;2023-04-03T04:43:19;3.10;84.60
23301;DHT22;11819;51.394;12.340;2023-04-03T04:45:48;3.10;84.70
23301;DHT22;11819;51.394;12.340;2023-04-03T04:48:17;3.10;84.70
23301;DHT22;11819;51.394;12.340;2023-04-03T04:50:42;3.10;84.70
23301;DHT22;11819;51.394;12.340;2023-04-03T04:53:08;3.00;84.60
23301;DHT22;11819;51.394;12.340;2023-04-03T04:55:33;3.00;84.60
23301;DHT22;11819;51.394;12.340;2023-04-03T04:58:00;3.00;84.60
23301;DHT22;11819;51.394;12.340;2023-04-03T05:00:26;3.00;84.70
23301;DHT22;11819;51.394;12.340;2023-04-03T05:02:55;3.00;84.40
23301;DHT22;11819;51.394;12.340;2023-04-03T05:05:20;3.10;84.30
23301;DHT22;11819;51.394;12.340;2023-04-03T05:07:46;3.00;84.20
23301;DHT22;11819;51.394;12.340;2023-04-03T05:10:12;3.00;84.20
23301;DHT22;11819;51.394;12.340;2023-04-03T05:12:39;3.00;84.20
23301;DHT22;11819;51.394;12.340;2023-04-03T05:15:05;3.00;84.10
23301;DHT22;11819;51.394;12.340;2023-04-03T05:17:32;3.00;84.20
23301;DHT22;11819;51.394;12.340;2023-04-03T05:19:58;3.00;84.20
23301;DHT22;11819;51.394;12.340;2023-04-03T05:22:27;3.00;84.20
23301;DHT22;11819;51.394;12.340;2023-04-03T05:24:58;3.00;84.30
23301;DHT22;11819;51.394;12.340;2023-04-03T05:27:25;3.00;84.20
23301;DHT22;11819;51.394;12.340;2023-04-03T05:29:54;3.10;84.20
23301;DHT22;11819;51.394;12.340;2023-04-03T05:32:22;3.10;84.00
23301;DHT22;11819;51.394;12.340;2023-04-03T05:34:55;3.10;84.00
23301;DHT22;11819;51.394;12.340;2023-04-03T05:37:21;3.10;84.00
23301;DHT22;11819;51.394;12.340;2023-04-03T05:39:47;3.20;83.90
23301;DHT22;11819;51.394;12.340;2023-04-03T05:42:13;3.20;83.70
23301;DHT22;11819;51.394;12.340;2023-04-03T05:44:39;3.30;83.40
23301;DHT22;11819;51.394;12.340;2023-04-03T05:47:06;3.30;83.20
23301;DHT22;11819;51.394;12.340;2023-04-03T05:49:32;3.20;83.10
23301;DHT22;11819;51.394;12.340;2023-04-03T05:51:58;3.20;83.10
23301;DHT22;11819;51.394;12.340;2023-04-03T05:54:29;3.30;83.20
23301;DHT22;11819;51.394;12.340;2023-04-03T05:57:02;3.30;83.10
23301;DHT22;11819;51.394;12.340;2023-04-03T05:59:30;3.40;83.10
23301;DHT22;11819;51.394;12.340;2023-04-03T06:01:59;3.40;82.80
23301;DHT22;11819;51.394;12.340;2023-04-03T06:04:25;3.40;82.60
23301;DHT22;11819;51.394;12.340;2023-04-03T06:06:54;3.30;82.70
23301;DHT22;11819;51.394;12.340;2023-04-03T06:09:25;3.30;82.90
23301;DHT22;11819;51.394;12.340;2023-04-03T06:11:52;3.20;83.00
23301;DHT22;11819;51.394;12.340;2023-04-03T06:14:19;3.20;83.10
23301;DHT22;11819;51.394;12.340;2023-04-03T06:16:45;3.30;83.30
23301;DHT22;11819;51.394;12.340;2023-04-03T06:19:12;3.40;82.80
23301;DHT22;11819;51.394;12.340;2023-04-03T06:21:41;3.40;82.60
23301;DHT22;11819;51.394;12.340;2023-04-03T06:24:14;3.40;82.80
23301;DHT22;11819;51.394;12.340;2023-04-03T06:26:41;3.50;82.80
23301;DHT22;11819;51.394;12.340;2023-04-03T06:29:08;3.60;82.60
23301;DHT22;11819;51.394;12.340;2023-04-03T06:31:34;3.60;82.10
23301;DHT22;11819;51.394;12.340;2023-04-03T06:34:02;3.70;82.00
23301;DHT22;11819;51.394;12.340;2023-04-03T06:36:28;3.70;81.90
23301;DHT22;11819;51.394;12.340;2023-04-03T06:38:54;3.80;81.40
23301;DHT22;11819;51.394;12.340;2023-04-03T06:41:21;3.80;81.40
23301;DHT22;11819;51.394;12.340;2023-04-03T06:43:47;3.80;81.70
23301;DHT22;11819;51.394;12.340;2023-04-03T06:46:18;3.80;81.20
23301;DHT22;11819;51.394;12.340;2023-04-03T06:48:44;3.90;81.30
23301;DHT22;11819;51.394;12.340;2023-04-03T06:51:20;3.90;81.50
23301;DHT22;11819;51.394;12.340;2023-04-03T06:53:48;3.90;81.10
23301;DHT22;11819;51.394;12.340;2023-04-03T06:56:14;3.90;80.80
23301;DHT22;11819;51.394;12.340;2023-04-03T06:58:40;3.90;81.60
23301;DHT22;11819;51.394;12.340;2023-04-03T07:01:06;4.00;81.20
23301;DHT22;11819;51.394;12.340;2023-04-03T07:03:32;4.00;80.70
23301;DHT22;11819;51.394;12.340;2023-04-03T07:05:58;4.00;80.40
23301;DHT22;11819;51.394;12.340;2023-04-03T07:08:23;4.00;80.00
23301;DHT22;11819;51.394;12.340;2023-04-03T07:10:51;4.10;80.10
23301;DHT22;11819;51.394;12.340;2023-04-03T07:13:17;4.10;79.80
23301;DHT22;11819;51.394;12.340;2023-04-03T07:15:43;4.10;79.60
23301;DHT22;11819;51.394;12.340;2023-04-03T07:18:09;4.20;79.50
23301;DHT22;11819;51.394;12.340;2023-04-03T07:20:35;4.20;78.60
23301;DHT22;11819;51.394;12.340;2023-04-03T07:23:01;4.10;78.40
23301;DHT22;11819;51.394;12.340;2023-04-03T07:25:28;4.10;78.00
23301;DHT22;11819;51.394;12.340;2023-04-03T07:27:53;4.10;78.20
23301;DHT22;11819;51.394;12.340;2023-04-03T07:30:20;4.20;78.60
23301;DHT22;11819;51.394;12.340;2023-04-03T07:32:46;4.20;78.60
23301;DHT22;11819;51.394;12.340;2023-04-03T07:35:12;4.30;78.10
23301;DHT22;11819;51.394;12.340;2023-04-03T07:37:38;4.30;77.80
23301;DHT22;11819;51.394;12.340;2023-04-03T07:40:04;4.30;77.70
23301;DHT22;11819;51.394;12.340;2023-04-03T07:42:30;4.40;77.70
23301;DHT22;11819;51.394;12.340;2023-04-03T07:44:57;4.50;77.60
23301;DHT22;11819;51.394;12.340;2023-04-03T07:47:22;4.60;77.30
23301;DHT22;11819;51.394;12.340;2023-04-03T07:49:48;4.50;76.50
23301;DHT22;11819;51.394;12.340;2023-04-03T07:52:14;4.50;76.40
23301;DHT22;11819;51.394;12.340;2023-04-03T07:54:42;4.60;77.00
23301;DHT22;11819;51.394;12.340;2023-04-03T07:57:08;4.60;76.70
23301;DHT22;11819;51.394;12.340;2023-04-03T07:59:34;4.50;75.70
23301;DHT22;11819;51.394;12.340;2023-04-03T08:02:00;4.50;75.60
23301;DHT22;11819;51.394;12.340;2023-04-03T08:04:25;4.50;75.90
23301;DHT22;11819;51.394;12.340;2023-04-03T08:06:52;4.50;75.80
23301;DHT22;11819;51.394;12.340;2023-04-03T08:09:18;4.50;75.50
23301;DHT22;11819;51.394;12.340;2023-04-03T08:11:45;4.40;75.00
23301;DHT22;11819;51.394;12.340;2023-04-03T08:14:11;4.30;75.00
23301;DHT22;11819;51.394;12.340;2023-04-03T08:16:46;4.30;75.00
23301;DHT22;11819;51.394;12.340;2023-04-03T08:19:14;4.30;75.40
23301;DHT22;11819;51.394;12.340;2023-04-03T08:21:41;4.40;75.40
23301;DHT22;11819;51.394;12.340;2023-04-03T08:24:08;4.40;74.80
23301;DHT22;11819;51.394;12.340;2023-04-03T08:26:34;4.40;74.80
23301;DHT22;11819;51.394;12.340;2023-04-03T08:29:00;4.50;75.10
23301;DHT22;11819;51.394;12.340;2023-04-03T08:31:26;4.70;75.20
23301;DHT22;11819;51.394;12.340;2023-04-03T08:33:52;4.80;74.40
23301;DHT22;11819;51.394;12.340;2023-04-03T08:36:26;5.00;73.80
23301;DHT22;11819;51.394;12.340;2023-04-03T08:38:53;5.00;72.70
23301;DHT22;11819;51.394;12.340;2023-04-03T08:41:31;5.10;72.40
23301;DHT22;11819;51.394;12.340;2023-04-03T08:49:48;5.10;72.50
23301;DHT22;11819;51.394;12.340;2023-04-03T08:57:48;5.10;70.90
23301;DHT22;11819;51.394;12.340;2023-04-03T09:00:21;5.00;70.50
23301;DHT22;11819;51.394;12.340;2023-04-03T09:02:50;5.00;70.80
23301;DHT22;11819;51.394;12.340;2023-04-03T09:10:54;5.10;70.70
23301;DHT22;11819;51.394;12.340;2023-04-03T09:13:32;5.10;69.90
23301;DHT22;11819;51.394;12.340;2023-04-03T09:16:15;5.20;69.80
23301;DHT22;11819;51.394;12.340;2023-04-03T09:18:45;5.20;69.80
23301;DHT22;11819;51.394;12.340;2023-04-03T09:21:15;5.40;69.10
23301;DHT22;11819;51.394;12.340;2023-04-03T09:23:51;5.50;69.20
23301;DHT22;11819;51.394;12.340;2023-04-03T09:26:25;5.60;69.40
23301;DHT22;11819;51.394;12.340;2023-04-03T09:28:54;5.70;68.40
23301;DHT22;11819;51.394;12.340;2023-04-03T09:31:38;5.70;67.10
23301;DHT22;11819;51.394;12.340;2023-04-03T09:36:55;5.80;65.90
23301;DHT22;11819;51.394;12.340;2023-04-03T09:39:24;5.90;66.00
23301;DHT22;11819;51.394;12.340;2023-04-03T09:42:05;5.90;65.80
23301;DHT22;11819;51.394;12.340;2023-04-03T09:44:36;6.00;66.20
23301;DHT22;11819;51.394;12.340;2023-04-03T09:47:28;6.10;66.30
23301;DHT22;11819;51.394;12.340;2023-04-03T09:52:40;6.20;65.20
23301;DHT22;11819;51.394;12.340;2023-04-03T09:55:19;6.20;65.10
23301;DHT22;11819;51.394;12.340;2023-04-03T09:57:54;6.30;65.00
23301;DHT22;11819;51.394;12.340;2023-04-03T10:00:23;6.20;64.40
23301;DHT22;11819;51.394;12.340;2023-04-03T10:02:54;6.20;64.20
23301;DHT22;11819;51.394;12.340;2023-04-03T10:07:51;6.20;65.00
23301;DHT22;11819;51.394;12.340;2023-04-03T10:12:45;6.10;64.20
23301;DHT22;11819;51.394;12.340;2023-04-03T10:15:16;6.10;65.00
23301;DHT22;11819;51.394;12.340;2023-04-03T10:18:02;6.20;65.20
23301;DHT22;11819;51.394;12.340;2023-04-03T10:20:39;6.20;64.90
23301;DHT22;11819;51.394;12.340;2023-04-03T10:23:17;6.20;64.80
23301;DHT22;11819;51.394;12.340;2023-04-03T10:33:58;6.40;64.60
23301;DHT22;11819;51.394;12.340;2023-04-03T10:37:10;6.50;64.20
23301;DHT22;11819;51.394;12.340;2023-04-03T10:42:43;6.50;63.30
23301;DHT22;11819;51.394;12.340;2023-04-03T10:51:29;6.50;65.40
23301;DHT22;11819;51.394;12.340;2023-04-03T10:54:24;6.60;64.80
23301;DHT22;11819;51.394;12.340;2023-04-03T10:56:54;6.60;64.00
23301;DHT22;11819;51.394;12.340;2023-04-03T11:02:17;6.60;62.70
23301;DHT22;11819;51.394;12.340;2023-04-03T11:04:48;6.60;63.30
23301;DHT22;11819;51.394;12.340;2023-04-03T11:07:26;6.70;63.20
23301;DHT22;11819;51.394;12.340;2023-04-03T11:09:58;6.70;62.60
23301;DHT22;11819;51.394;12.340;2023-04-03T11:12:39;6.70;62.00
23301;DHT22;11819;51.394;12.340;2023-04-03T11:15:11;6.70;61.80
23301;DHT22;11819;51.394;12.340;2023-04-03T11:17:41;6.70;60.60
23301;DHT22;11819;51.394;12.340;2023-04-03T11:20:23;6.80;60.10
23301;DHT22;11819;51.394;12.340;2023-04-03T11:22:58;6.90;60.10
23301;DHT22;11819;51.394;12.340;2023-04-03T11:25:26;7.10;61.00
23301;DHT22;11819;51.394;12.340;2023-04-03T11:27:59;7.30;60.60
23301;DHT22;11819;51.394;12.340;2023-04-03T11:36:13;7.50;60.30
23301;DHT22;11819;51.394;12.340;2023-04-03T11:38:46;7.40;60.20
23301;DHT22;11819;51.394;12.340;2023-04-03T11:41:13;7.40;61.30
23301;DHT22;11819;51.394;12.340;2023-04-03T11:43:59;7.40;61.50
23301;DHT22;11819;51.394;12.340;2023-04-03T11:46:48;7.40;61.10
23301;DHT22;11819;51.394;12.340;2023-04-03T12:05:49;7.70;59.10
23301;DHT22;11819;51.394;12.340;2023-04-03T12:08:26;7.80;59.50
23301;DHT22;11819;51.394;12.340;2023-04-03T12:35:05;8.50;56.30
23301;DHT22;11819;51.394;12.340;2023-04-03T12:42:34;8.20;57.50
23301;DHT22;11819;51.394;12.340;2023-04-03T12:45:16;8.10;57.00
23301;DHT22;11819;51.394;12.340;2023-04-03T12:47:43;8.10;57.60
23301;DHT22;11819;51.394;12.340;2023-04-03T12:50:22;8.10;57.70
23301;DHT22;11819;51.394;12.340;2023-04-03T12:55:39;8.50;57.40
23301;DHT22;11819;51.394;12.340;2023-04-03T12:58:25;8.70;56.20
23301;DHT22;11819;51.394;12.340;2023-04-03T13:01:13;8.70;56.70
23301;DHT22;11819;51.394;12.340;2023-04-03T13:04:16;8.60;56.70
23301;DHT22;11819;51.394;12.340;2023-04-03T13:06:42;8.40;56.70
23301;DHT22;11819;51.394;12.340;2023-04-03T13:09:20;8.20;56.70
23301;DHT22;11819;51.394;12.340;2023-04-03T13:11:48;8.10;56.60
23301;DHT22;11819;51.394;12.340;2023-04-03T13:14:19;8.10;57.60
23301;DHT22;11819;51.394;12.340;2023-04-03T13:17:02;8.20;57.80
23301;DHT22;11819;51.394;12.340;2023-04-03T13:19:29;8.20;57.30
23301;DHT22;11819;51.394;12.340;2023-04-03T13:22:02;8.60;56.70
23301;DHT22;11819;51.394;12.340;2023-04-03T13:24:33;9.20;56.00
23301;DHT22;11819;51.394;12.340;2023-04-03T13:26:59;9.50;54.70
23301;DHT22;11819;51.394;12.340;2023-04-03T13:29:29;9.40;54.20
23301;DHT22;11819;51.394;12.340;2023-04-03T13:31:56;9.30;53.90
23301;DHT22;11819;51.394;12.340;2023-04-03T13:34:25;9.00;54.10
23301;DHT22;11819;51.394;12.340;2023-04-03T13:39:25;8.60;54.90
23301;DHT22;11819;51.394;12.340;2023-04-03T13:41:55;8.60;55.30
23301;DHT22;11819;51.394;12.340;2023-04-03T13:46:56;8.60;55.40
23301;DHT22;11819;51.394;12.340;2023-04-03T13:49:35;8.50;55.80
23301;DHT22;11819;51.394;12.340;2023-04-03T13:52:33;8.40;56.60
23301;DHT22;11819;51.394;12.340;2023-04-03T13:56:16;8.40;57.30
23301;DHT22;11819;51.394;12.340;2023-04-03T14:00:40;8.20;57.80
23301;DHT22;11819;51.394;12.340;2023-04-03T14:03:17;8.10;58.00
23301;DHT22;11819;51.394;12.340;2023-04-03T14:05:44;8.10;58.20
23301;DHT22;11819;51.394;12.340;2023-04-03T14:08:11;8.00;58.10
23301;DHT22;11819;51.394;12.340;2023-04-03T14:10:37;8.00;57.90
23301;DHT22;11819;51.394;12.340;2023-04-03T14:13:03;8.00;58.00
23301;DHT22;11819;51.394;12.340;2023-04-03T14:15:30;8.00;57.50
23301;DHT22;11819;51.394;12.340;2023-04-03T14:17:57;7.90;57.10
23301;DHT22;11819;51.394;12.340;2023-04-03T14:20:25;7.90;57.00
23301;DHT22;11819;51.394;12.340;2023-04-03T14:22:53;7.80;57.00
23301;DHT22;11819;51.394;12.340;2023-04-03T14:25:20;7.90;56.90
23301;DHT22;11819;51.394;12.340;2023-04-03T14:27:50;7.90;56.90
23301;DHT22;11819;51.394;12.340;2023-04-03T14:30:32;8.00;57.00
23301;DHT22;11819;51.394;12.340;2023-04-03T14:32:58;8.00;56.90
23301;DHT22;11819;51.394;12.340;2023-04-03T14:35:24;8.00;57.00
23301;DHT22;11819;51.394;12.340;2023-04-03T14:37:51;8.00;57.10
23301;DHT22;11819;51.394;12.340;2023-04-03T14:40:25;8.00;57.10
23301;DHT22;11819;51.394;12.340;2023-04-03T14:42:51;8.00;57.20
23301;DHT22;11819;51.394;12.340;2023-04-03T14:45:17;7.90;56.90
23301;DHT22;11819;51.394;12.340;2023-04-03T14:48:01;7.90;57.00
23301;DHT22;11819;51.394;12.340;2023-04-03T14:50:28;7.90;57.70
23301;DHT22;11819;51.394;12.340;2023-04-03T14:52:57;7.80;58.10
23301;DHT22;11819;51.394;12.340;2023-04-03T14:55:24;7.80;57.80
23301;DHT22;11819;51.394;12.340;2023-04-03T14:57:51;7.70;57.60
23301;DHT22;11819;51.394;12.340;2023-04-03T15:00:19;7.70;57.60
23301;DHT22;11819;51.394;12.340;2023-04-03T15:02:45;7.60;57.40
23301;DHT22;11819;51.394;12.340;2023-04-03T15:05:12;7.60;57.60
23301;DHT22;11819;51.394;12.340;2023-04-03T15:07:41;7.60;57.70
23301;DHT22;11819;51.394;12.340;2023-04-03T15:10:19;7.60;57.20
23301;DHT22;11819;51.394;12.340;2023-04-03T15:12:46;7.60;57.40
23301;DHT22;11819;51.394;12.340;2023-04-03T15:15:13;7.60;58.00
23301;DHT22;11819;51.394;12.340;2023-04-03T15:17:39;7.60;57.90
23301;DHT22;11819;51.394;12.340;2023-04-03T15:22:38;7.60;57.50
23301;DHT22;11819;51.394;12.340;2023-04-03T15:25:04;7.70;57.80
23301;DHT22;11819;51.394;12.340;2023-04-03T15:27:31;7.70;58.00
23301;DHT22;11819;51.394;12.340;2023-04-03T15:29:56;7.70;58.00
23301;DHT22;11819;51.394;12.340;2023-04-03T15:32:22;7.60;57.40
23301;DHT22;11819;51.394;12.340;2023-04-03T15:34:47;7.60;57.50
23301;DHT22;11819;51.394;12.340;2023-04-03T15:37:13;7.60;57.30
23301;DHT22;11819;51.394;12.340;2023-04-03T15:39:39;7.50;56.80
23301;DHT22;11819;51.394;12.340;2023-04-03T15:42:04;7.50;56.80
23301;DHT22;11819;51.394;12.340;2023-04-03T15:44:36;7.40;56.70
23301;DHT22;11819;51.394;12.340;2023-04-03T15:47:02;7.40;57.00
23301;DHT22;11819;51.394;12.340;2023-04-03T15:49:28;7.40;56.70
23301;DHT22;11819;51.394;12.340;2023-04-03T15:51:54;7.40;56.60
23301;DHT22;11819;51.394;12.340;2023-04-03T15:54:19;7.40;57.10
23301;DHT22;11819;51.394;12.340;2023-04-03T15:56:45;7.50;57.60
23301;DHT22;11819;51.394;12.340;2023-04-03T15:59:12;7.50;57.90
23301;DHT22;11819;51.394;12.340;2023-04-03T16:01:38;7.50;57.70
23301;DHT22;11819;51.394;12.340;2023-04-03T16:04:05;7.50;57.10
23301;DHT22;11819;51.394;12.340;2023-04-03T16:06:32;7.50;57.70
23301;DHT22;11819;51.394;12.340;2023-04-03T16:08:59;7.40;58.10
23301;DHT22;11819;51.394;12.340;2023-04-03T16:11:27;7.40;58.20
23301;DHT22;11819;51.394;12.340;2023-04-03T16:13:54;7.40;58.10
23301;DHT22;11819;51.394;12.340;2023-04-03T16:16:20;7.30;58.20
23301;DHT22;11819;51.394;12.340;2023-04-03T16:18:46;7.30;58.20
23301;DHT22;11819;51.394;12.340;2023-04-03T16:21:13;7.30;58.10
23301;DHT22;11819;51.394;12.340;2023-04-03T16:23:39;7.30;58.10
23301;DHT22;11819;51.394;12.340;2023-04-03T16:26:05;7.30;58.20
23301;DHT22;11819;51.394;12.340;2023-04-03T16:28:31;7.30;58.50
23301;DHT22;11819;51.394;12.340;2023-04-03T16:30:57;7.40;58.70
23301;DHT22;11819;51.394;12.340;2023-04-03T16:33:23;7.40;58.70
23301;DHT22;11819;51.394;12.340;2023-04-03T16:35:50;7.40;58.90
23301;DHT22;11819;51.394;12.340;2023-04-03T16:38:16;7.40;59.20
23301;DHT22;11819;51.394;12.340;2023-04-03T16:40:41;7.40;59.40
23301;DHT22;11819;51.394;12.340;2023-04-03T16:43:07;7.30;59.70
23301;DHT22;11819;51.394;12.340;2023-04-03T16:45:33;7.30;59.80
23301;DHT22;11819;51.394;12.340;2023-04-03T16:47:58;7.20;59.60
23301;DHT22;11819;51.394;12.340;2023-04-03T16:50:24;7.20;59.50
23301;DHT22;11819;51.394;12.340;2023-04-03T16:52:50;7.20;59.80
23301;DHT22;11819;51.394;12.340;2023-04-03T16:55:15;7.20;60.10
23301;DHT22;11819;51.394;12.340;2023-04-03T16:57:41;7.20;60.20
23301;DHT22;11819;51.394;12.340;2023-04-03T17:00:07;7.20;60.50
23301;DHT22;11819;51.394;12.340;2023-04-03T17:02:33;7.20;60.30
23301;DHT22;11819;51.394;12.340;2023-04-03T17:04:59;7.20;60.30
23301;DHT22;11819;51.394;12.340;2023-04-03T17:07:25;7.20;60.50
23301;DHT22;11819;51.394;12.340;2023-04-03T17:09:51;7.20;60.40
23301;DHT22;11819;51.394;12.340;2023-04-03T17:12:19;7.20;60.20
23301;DHT22;11819;51.394;12.340;2023-04-03T17:14:47;7.20;60.30
23301;DHT22;11819;51.394;12.340;2023-04-03T17:17:19;7.10;60.40
23301;DHT22;11819;51.394;12.340;2023-04-03T17:19:48;7.10;60.90
23301;DHT22;11819;51.394;12.340;2023-04-03T17:22:13;7.10;61.30
23301;DHT22;11819;51.394;12.340;2023-04-03T17:24:41;7.10;61.50
23301;DHT22;11819;51.394;12.340;2023-04-03T17:27:06;7.10;61.80
23301;DHT22;11819;51.394;12.340;2023-04-03T17:29:32;7.10;62.20
23301;DHT22;11819;51.394;12.340;2023-04-03T17:31:57;7.10;62.20
23301;DHT22;11819;51.394;12.340;2023-04-03T17:34:23;7.10;62.20
23301;DHT22;11819;51.394;12.340;2023-04-03T17:36:49;7.00;62.30
23301;DHT22;11819;51.394;12.340;2023-04-03T17:39:15;7.10;62.40
23301;DHT22;11819;51.394;12.340;2023-04-03T17:41:41;7.00;62.60
23301;DHT22;11819;51.394;12.340;2023-04-03T17:44:06;7.00;62.80